Time;durP1;ratioP1;P1;durP2;ratioP2;P2;SDS_P1;SDS_P2;PMS_P1;PMS_P2;Temp;Humidity;BMP_temperature;BMP_pressure;BME280_temperature;BME280_humidity;BME280_pressure;Samples;Min_cycle;Max_cycle;Signal;HPM_P1;HPM_P2
2022/06/24 00:01:32;;;;;;;;;;;;;;;-149.78;100.00;50037.28;5101806;28;19915;-70
2022/06/24 00:03:58;;;;;;;;;;;;;;;-149.78;100.00;50025.56;5101406;28;20578;-70
2022/06/24 00:06:28;;;;;;;;;;;;;;;-149.78;100.00;49982.53;5103298;28;19927;-70
2022/06/24 00:08:57;;;;;;;;;;;;;;;-149.78;100.00;50025.56;5098453;28;19924;-70
2022/06/24 00:11:23;;;;;;;;;;;;;;;-149.78;100.00;50031.41;5103267;28;19920;-70
2022/06/24 00:13:50;;;;;;;;;;;;;;;-149.78;100.00;50037.28;5100707;28;20347;-70
2022/06/24 00:16:15;;;;;;;;;;;;;;;-149.78;100.00;50045.09;5102525;28;19926;-70
2022/06/24 00:18:40;;;;;;;;;;;;;;;-149.78;100.00;50084.22;5102274;28;19919;-70
2022/06/24 00:21:12;;;;;;;;;;;;;;;-149.78;100.00;50045.09;5095867;28;20375;-70
2022/06/24 00:23:39;;;;;;;;;;;;;;;-149.78;100.00;50023.59;5094467;28;19926;-70
2022/06/24 00:26:04;;;;;;;;;;;;;;;-149.78;100.00;50043.16;5100578;28;20275;-70
2022/06/24 00:28:30;;;;;;;;;;;;;;;-149.78;100.00;50041.19;5102319;28;19930;-70
2022/06/24 00:30:56;;;;;;;;;;;;;;;-149.78;100.00;50033.38;5099786;28;19942;-70
2022/06/24 00:33:22;;;;;;;;;;;;;;;-149.78;100.00;50033.38;5102170;28;19924;-70
2022/06/24 00:35:48;;;;;;;;;;;;;;;-149.78;100.00;49982.53;5101058;28;19923;-70
2022/06/24 00:38:21;;;;;;;;;;;;;;;-149.78;100.00;50013.81;5098473;28;19924;-70
2022/06/24 00:40:47;;;;;;;;;;;;;;;-149.78;100.00;50049.03;5102624;28;19940;-70
2022/06/24 00:43:36;;;;;;;;;;;;;;;-149.78;100.00;50049.03;5101105;28;19920;-70
2022/06/24 00:46:11;;;;;;;;;;;;;;;-149.78;100.00;50052.94;5098429;28;19969;-70
2022/06/24 00:48:41;;;;;;;;;;;;;;;-149.78;100.00;50029.47;5101431;28;19924;-70
2022/06/24 00:51:10;;;;;;;;;;;;;;;-149.78;100.00;50029.47;5103907;28;19915;-68
2022/06/24 00:53:42;;;;;;;;;;;;;;;-149.78;100.00;50047.06;5102450;28;19930;-70
2022/06/24 00:56:09;;;;;;;;;;;;;;;-149.78;100.00;50049.03;5103746;28;19920;-70
2022/06/24 00:58:35;;;;;;;;;;;;;;;-149.78;100.00;50021.63;5103015;28;19923;-70
2022/06/24 01:01:00;;;;;;;;;;;;;;;-149.78;100.00;50052.94;5101043;28;20412;-70
2022/06/24 01:03:37;;;;;;;;;;;;;;;-149.78;100.00;50060.75;5106462;28;19938;-70
2022/06/24 01:06:02;;;;;;;;;;;;;;;-149.78;100.00;50035.34;5106865;28;19936;-70
2022/06/24 01:08:28;;;;;;;;;;;;;;;-149.78;100.00;50033.38;5106960;28;19989;-70
2022/06/24 01:10:53;;;;;;;;;;;;;;;-149.78;100.00;50027.50;5104800;28;19928;-70
2022/06/24 01:13:18;;;;;;;;;;;;;;;-149.78;100.00;50052.94;5105271;28;20387;-70
2022/06/24 01:15:44;;;;;;;;;;;;;;;-149.78;100.00;50043.16;5105151;28;19955;-70
2022/06/24 01:18:10;;;;;;;;;;;;;;;-149.78;100.00;50037.28;5105667;28;19927;-70
2022/06/24 01:20:36;;;;;;;;;;;;;;;-149.78;100.00;50045.09;5105935;28;19966;-70
2022/06/24 01:23:01;;;;;;;;;;;;;;;-149.78;100.00;50037.28;5106335;28;19969;-70
2022/06/24 01:25:29;;;;;;;;;;;;;;;-149.78;100.00;50013.81;5103858;28;19926;-70
2022/06/24 01:27:54;;;;;;;;;;;;;;;-149.78;100.00;50064.66;5103749;28;19923;-70
2022/06/24 01:30:20;;;;;;;;;;;;;;;-149.78;100.00;50037.28;5100598;28;19942;-70
2022/06/24 01:32:45;;;;;;;;;;;;;;;-149.78;100.00;50037.28;5100929;28;20332;-70
2022/06/24 01:35:10;;;;;;;;;;;;;;;-149.78;100.00;50060.75;5106826;28;20564;-70
2022/06/24 01:37:36;;;;;;;;;;;;;;;-149.78;100.00;50064.66;5103690;28;20014;-70
2022/06/24 01:40:01;;;;;;;;;;;;;;;-149.78;100.00;50043.16;5103116;28;20056;-70
2022/06/24 01:42:27;;;;;;;;;;;;;;;-149.78;100.00;50095.94;5105022;28;19934;-70
2022/06/24 01:44:53;;;;;;;;;;;;;;;-149.78;100.00;50052.94;5105034;28;20341;-70
2022/06/24 01:47:19;;;;;;;;;;;;;;;-149.78;100.00;50025.56;5103739;28;19934;-70
2022/06/24 01:49:45;;;;;;;;;;;;;;;-149.78;100.00;50092.03;5103244;28;19927;-70
2022/06/24 01:52:10;;;;;;;;;;;;;;;-149.78;100.00;50080.31;5103732;28;19928;-70
2022/06/24 01:54:36;;;;;;;;;;;;;;;-149.78;100.00;50060.75;5106014;28;19952;-70
2022/06/24 01:57:01;;;;;;;;;;;;;;;-149.78;100.00;50060.75;5102420;28;19924;-70
2022/06/24 01:59:27;;;;;;;;;;;;;;;-149.78;100.00;50050.97;5105781;28;19916;-70
2022/06/24 02:01:52;;;;;;;;;;;;;;;-149.78;100.00;50056.84;5104135;28;19988;-70
2022/06/24 02:04:18;;;;;;;;;;;;;;;-149.78;100.00;50109.66;5087678;28;19916;-70
2022/06/24 02:06:44;;;;;;;;;;;;;;;-149.78;100.00;50029.47;5105911;28;20390;-70
2022/06/24 02:09:09;;;;;;;;;;;;;;;-149.78;100.00;50062.72;5103899;28;20340;-70
2022/06/24 02:14:37;;;;;;;;;;;;;;;-149.78;100.00;50064.66;5069787;28;20574;-70
2022/06/24 02:17:03;;;;;;;;;;;;;;;-149.78;100.00;50076.41;5094586;28;19923;-70
2022/06/24 02:19:28;;;;;;;;;;;;;;;-149.78;100.00;50060.75;5105698;28;19930;-70
2022/06/24 02:21:53;;;;;;;;;;;;;;;-149.78;100.00;50050.97;5107026;28;20369;-70
2022/06/24 02:24:19;;;;;;;;;;;;;;;-149.78;100.00;50070.53;5105281;28;20476;-70
2022/06/24 02:26:45;;;;;;;;;;;;;;;-149.78;100.00;50084.22;5106710;28;19931;-70
2022/06/24 02:29:10;;;;;;;;;;;;;;;-149.78;100.00;50052.94;5103157;28;19973;-71
2022/06/24 02:31:37;;;;;;;;;;;;;;;-149.78;100.00;50084.22;5102984;28;19941;-70
2022/06/24 02:34:03;;;;;;;;;;;;;;;-149.78;100.00;50078.34;5104065;28;19947;-70
2022/06/24 02:36:28;;;;;;;;;;;;;;;-149.78;100.00;50035.34;5099170;28;20577;-70
2022/06/24 02:38:54;;;;;;;;;;;;;;;-149.78;100.00;50021.63;5100419;28;19923;-70
2022/06/24 02:41:19;;;;;;;;;;;;;;;-149.78;100.00;50084.22;5101051;28;19916;-70
2022/06/24 02:43:44;;;;;;;;;;;;;;;-149.78;100.00;50025.56;5101416;28;19919;-71
2022/06/24 02:46:11;;;;;;;;;;;;;;;-149.78;100.00;50080.31;5101531;28;20015;-70
2022/06/24 02:48:38;;;;;;;;;;;;;;;-149.78;100.00;50049.03;5104240;28;19920;-71
2022/06/24 02:51:06;;;;;;;;;;;;;;;-149.78;100.00;50084.22;5099946;28;19933;-70
2022/06/24 02:53:32;;;;;;;;;;;;;;;-149.78;100.00;50092.03;5091393;28;21149;-71
2022/06/24 02:56:02;;;;;;;;;;;;;;;-149.78;100.00;50099.88;5103090;28;19919;-70
2022/06/24 02:58:27;;;;;;;;;;;;;;;-149.78;100.00;50060.75;5103817;28;19983;-71
2022/06/24 03:00:53;;;;;;;;;;;;;;;-149.78;100.00;50080.31;5095219;28;20355;-70
2022/06/24 03:03:20;;;;;;;;;;;;;;;-149.78;100.00;50080.31;5102794;28;19939;-70
2022/06/24 03:05:45;;;;;;;;;;;;;;;-149.78;100.00;50084.22;5102937;28;19958;-70
2022/06/24 03:08:11;;;;;;;;;;;;;;;-149.78;100.00;50082.25;5101109;28;20383;-70
2022/06/24 03:10:37;;;;;;;;;;;;;;;-149.78;100.00;50103.78;5102212;28;19923;-70
2022/06/24 03:13:03;;;;;;;;;;;;;;;-149.78;100.00;50080.31;5103543;28;19916;-70
2022/06/24 03:15:28;;;;;;;;;;;;;;;-149.78;100.00;50076.41;5099093;28;20113;-70
2022/06/24 03:17:53;;;;;;;;;;;;;;;-149.78;100.00;50072.50;5101813;28;19984;-70
2022/06/24 03:20:19;;;;;;;;;;;;;;;-149.78;100.00;50027.50;5103514;28;19923;-71
2022/06/24 03:22:44;;;;;;;;;;;;;;;-149.78;100.00;50080.31;5097451;28;19920;-72
2022/06/24 03:25:10;;;;;;;;;;;;;;;-149.78;100.00;50050.97;5082089;28;19947;-70
2022/06/24 03:27:36;;;;;;;;;;;;;;;-149.78;100.00;50088.13;5099946;28;19916;-71
2022/06/24 03:30:01;;;;;;;;;;;;;;;-149.78;100.00;50082.25;5103374;28;19955;-71
2022/06/24 03:32:28;;;;;;;;;;;;;;;-149.78;100.00;50097.91;5100387;28;19916;-71
2022/06/24 03:34:53;;;;;;;;;;;;;;;-149.78;100.00;50094.00;5103692;28;19931;-71
2022/06/24 03:37:18;;;;;;;;;;;;;;;-149.78;100.00;50056.84;5102578;28;20244;-70
2022/06/24 03:39:44;;;;;;;;;;;;;;;-149.78;100.00;50056.84;5099944;28;19930;-71
2022/06/24 03:42:09;;;;;;;;;;;;;;;-149.78;100.00;50131.16;5102708;28;19931;-70
2022/06/24 03:44:35;;;;;;;;;;;;;;;-149.78;100.00;50080.31;5103852;28;21610;-71
2022/06/24 03:47:01;;;;;;;;;;;;;;;-149.78;100.00;50052.94;5086580;28;19920;-71
2022/06/24 03:49:26;;;;;;;;;;;;;;;-149.78;100.00;50080.31;5099365;28;19927;-71
2022/06/24 03:51:52;;;;;;;;;;;;;;;-149.78;100.00;50103.78;5103512;28;19927;-71
2022/06/24 03:54:17;;;;;;;;;;;;;;;-149.78;100.00;50095.94;5100252;28;19927;-71
2022/06/24 03:56:43;;;;;;;;;;;;;;;-149.78;100.00;50103.78;5079199;28;19919;-71
2022/06/24 03:59:08;;;;;;;;;;;;;;;-149.78;100.00;50119.41;5103342;28;20002;-71
2022/06/24 04:01:34;;;;;;;;;;;;;;;-149.78;100.00;50074.44;5102637;28;19967;-71
2022/06/24 04:03:59;;;;;;;;;;;;;;;-149.78;100.00;50084.22;5102925;28;20132;-71
2022/06/24 04:06:24;;;;;;;;;;;;;;;-149.78;100.00;50111.59;5103736;28;19928;-71
2022/06/24 04:08:52;;;;;;;;;;;;;;;-149.78;100.00;50103.78;5105487;28;20366;-71
2022/06/24 04:11:18;;;;;;;;;;;;;;;-149.78;100.00;50092.03;5103792;28;19916;-71
2022/06/24 04:13:44;;;;;;;;;;;;;;;-149.78;100.00;50103.78;5104084;28;19928;-71
2022/06/24 04:16:10;;;;;;;;;;;;;;;-149.78;100.00;50099.88;5098963;28;19978;-71
2022/06/24 04:18:35;;;;;;;;;;;;;;;-149.78;100.00;50095.94;5100444;28;19915;-71
2022/06/24 04:21:01;;;;;;;;;;;;;;;-149.78;100.00;50101.81;5100412;28;19927;-71
2022/06/24 04:23:26;;;;;;;;;;;;;;;-149.78;100.00;50101.81;5103102;28;20010;-71
2022/06/24 04:25:52;;;;;;;;;;;;;;;-149.78;100.00;50084.22;5103722;28;19924;-71
2022/06/24 04:28:17;;;;;;;;;;;;;;;-149.78;100.00;50056.84;5101424;28;19959;-71
2022/06/24 04:30:43;;;;;;;;;;;;;;;-149.78;100.00;50113.56;5100764;28;19927;-70
2022/06/24 04:33:09;;;;;;;;;;;;;;;-149.78;100.00;50109.66;5103048;28;19923;-71
2022/06/24 04:35:35;;;;;;;;;;;;;;;-149.78;100.00;50076.41;5099340;28;19946;-70
2022/06/24 04:38:00;;;;;;;;;;;;;;;-149.78;100.00;50080.31;5100784;28;20023;-71
2022/06/24 04:40:26;;;;;;;;;;;;;;;-149.78;100.00;50084.22;5101616;28;19923;-71
2022/06/24 04:42:52;;;;;;;;;;;;;;;-149.78;100.00;50072.50;5100062;28;19919;-71
2022/06/24 04:45:18;;;;;;;;;;;;;;;-149.78;100.00;50084.22;5103031;28;20346;-71
2022/06/24 04:47:44;;;;;;;;;;;;;;;-149.78;100.00;50123.34;5100800;28;19993;-71
2022/06/24 04:50:09;;;;;;;;;;;;;;;-149.78;100.00;50092.03;5098655;28;20371;-71
2022/06/24 04:52:35;;;;;;;;;;;;;;;-149.78;100.00;50090.09;5102472;28;19919;-71
2022/06/24 04:55:01;;;;;;;;;;;;;;;-149.78;100.00;50060.75;5101638;28;19915;-71
2022/06/24 04:57:27;;;;;;;;;;;;;;;-149.78;100.00;50109.66;5102144;28;19923;-70
2022/06/24 04:59:52;;;;;;;;;;;;;;;-149.78;100.00;50111.59;5100589;28;19915;-71
2022/06/24 05:02:19;;;;;;;;;;;;;;;-149.78;100.00;50095.94;5099097;28;20276;-71
2022/06/24 05:04:44;;;;;;;;;;;;;;;-149.78;100.00;50080.31;5100220;28;19928;-71
2022/06/24 05:07:10;;;;;;;;;;;;;;;-149.78;100.00;50113.56;5101478;28;19920;-71
2022/06/24 05:09:36;;;;;;;;;;;;;;;-149.78;100.00;50107.69;5099732;28;20015;-70
2022/06/24 05:12:02;;;;;;;;;;;;;;;-149.78;100.00;50099.88;5102694;28;19930;-71
2022/06/24 05:14:28;;;;;;;;;;;;;;;-149.78;100.00;50095.94;5102259;28;19958;-71
2022/06/24 05:16:53;;;;;;;;;;;;;;;-149.78;100.00;50095.94;5100512;28;19923;-71
2022/06/24 05:19:19;;;;;;;;;;;;;;;-149.78;100.00;50049.03;5103383;28;19923;-71
2022/06/24 05:21:44;;;;;;;;;;;;;;;-149.78;100.00;50064.66;5102391;28;20282;-71
2022/06/24 05:24:10;;;;;;;;;;;;;;;-149.78;100.00;50076.41;5099727;28;19927;-71
2022/06/24 05:26:35;;;;;;;;;;;;;;;-149.78;100.00;50080.31;5099181;28;19919;-71
2022/06/24 05:29:01;;;;;;;;;;;;;;;-149.78;100.00;50088.13;5101929;28;19924;-71
2022/06/24 05:31:26;;;;;;;;;;;;;;;-149.78;100.00;50045.09;5102319;28;19920;-71
2022/06/24 05:33:55;;;;;;;;;;;;;;;-149.78;100.00;50084.22;5102321;28;19984;-71
2022/06/24 05:36:20;;;;;;;;;;;;;;;-149.78;100.00;50082.25;5100080;28;19928;-71
2022/06/24 05:38:46;;;;;;;;;;;;;;;-149.78;100.00;50080.31;5096626;28;19944;-71
2022/06/24 05:41:12;;;;;;;;;;;;;;;-149.78;100.00;50041.19;5084460;28;19924;-71
2022/06/24 05:43:38;;;;;;;;;;;;;;;-149.78;100.00;50060.75;5076127;28;19927;-71
2022/06/24 05:46:04;;;;;;;;;;;;;;;-149.78;100.00;50052.94;5096212;28;19927;-71
2022/06/24 05:48:30;;;;;;;;;;;;;;;-149.78;100.00;50050.97;5103167;28;19947;-70
2022/06/24 05:50:56;;;;;;;;;;;;;;;-149.78;100.00;50076.41;5106895;28;19920;-71
2022/06/24 05:56:06;;;;;;;;;;;;;;;-149.78;100.00;50052.94;5105450;28;19973;-71
2022/06/24 05:58:31;;;;;;;;;;;;;;;-149.78;100.00;50060.75;5106515;28;19994;-71
2022/06/24 06:00:57;;;;;;;;;;;;;;;-149.78;100.00;50043.16;5103638;28;20060;-71
2022/06/24 06:03:22;;;;;;;;;;;;;;;-149.78;100.00;50033.38;5107299;28;20063;-73
2022/06/24 06:05:48;;;;;;;;;;;;;;;-149.78;100.00;50052.94;5103367;28;20042;-71
2022/06/24 06:08:14;;;;;;;;;;;;;;;-149.78;100.00;50021.63;5104692;28;19932;-71
2022/06/24 06:10:39;;;;;;;;;;;;;;;-149.78;100.00;50060.75;5103303;28;20271;-70
2022/06/24 06:13:04;;;;;;;;;;;;;;;-149.78;100.00;50037.28;5104755;28;19950;-71
2022/06/24 06:15:30;;;;;;;;;;;;;;;-149.78;100.00;50041.19;5098708;28;20101;-71
2022/06/24 06:17:56;;;;;;;;;;;;;;;-149.78;100.00;50064.66;5099233;28;20018;-71
2022/06/24 06:20:21;;;;;;;;;;;;;;;-149.78;100.00;50064.66;5100851;28;19919;-72
2022/06/24 06:22:47;;;;;;;;;;;;;;;-149.78;100.00;50049.03;5098649;28;19927;-70
2022/06/24 06:25:14;;;;;;;;;;;;;;;-149.78;100.00;50049.03;5099750;28;19954;-70
2022/06/24 06:27:40;;;;;;;;;;;;;;;-149.78;100.00;50029.47;5099913;28;20049;-71
2022/06/24 06:30:06;;;;;;;;;;;;;;;-149.78;100.00;50049.03;5102564;28;19928;-70
2022/06/24 06:32:31;;;;;;;;;;;;;;;-149.78;100.00;50039.25;5097402;28;19927;-70
2022/06/24 06:34:56;;;;;;;;;;;;;;;-149.78;100.00;50037.28;5093091;28;19928;-72
2022/06/24 06:37:23;;;;;;;;;;;;;;;-149.78;100.00;50029.47;5092520;28;19923;-72
2022/06/24 06:39:50;;;;;;;;;;;;;;;-149.78;100.00;50021.63;5099571;28;20302;-72
2022/06/24 06:42:16;;;;;;;;;;;;;;;-149.78;100.00;49986.44;5099883;28;19928;-71
2022/06/24 06:44:41;;;;;;;;;;;;;;;-149.78;100.00;50015.78;5098453;28;20013;-71
2022/06/24 06:47:07;;;;;;;;;;;;;;;-149.78;100.00;50007.94;5102817;28;19943;-71
2022/06/24 06:49:33;;;;;;;;;;;;;;;-149.78;100.00;50041.19;5101263;28;20014;-71
2022/06/24 06:52:01;;;;;;;;;;;;;;;-149.78;100.00;50013.81;5097651;28;19916;-73
2022/06/24 06:54:27;;;;;;;;;;;;;;;-149.78;100.00;50007.94;5096272;28;19945;-73
2022/06/24 06:56:53;;;;;;;;;;;;;;;-149.78;100.00;50017.72;5098198;28;19923;-72
2022/06/24 06:59:18;;;;;;;;;;;;;;;-149.78;100.00;50009.91;5095247;28;20136;-73
2022/06/24 07:01:43;;;;;;;;;;;;;;;-149.78;100.00;49998.19;5092335;28;19916;-76
2022/06/24 07:04:09;;;;;;;;;;;;;;;-149.78;100.00;50009.91;5089097;28;19922;-74
2022/06/24 07:06:34;;;;;;;;;;;;;;;-149.78;100.00;50021.63;5092395;28;19939;-74
2022/06/24 07:08:59;;;;;;;;;;;;;;;-149.78;100.00;49990.34;5092452;28;20520;-72
2022/06/24 07:11:25;;;;;;;;;;;;;;;-149.78;100.00;49982.53;5088901;28;19928;-73
2022/06/24 07:13:50;;;;;;;;;;;;;;;-149.78;100.00;49990.34;5090979;28;19927;-73
2022/06/24 07:16:16;;;;;;;;;;;;;;;-149.78;100.00;50002.09;5093065;28;20390;-74
2022/06/24 07:18:41;;;;;;;;;;;;;;;-149.78;100.00;49970.78;5091789;28;19963;-74
2022/06/24 07:21:07;;;;;;;;;;;;;;;-149.78;100.00;49988.41;5092415;28;19935;-74
2022/06/24 07:23:32;;;;;;;;;;;;;;;-149.78;100.00;50011.88;5093485;28;20009;-74
2022/06/24 07:25:58;;;;;;;;;;;;;;;-149.78;100.00;49947.34;5091643;28;19985;-75
2022/06/24 07:28:25;;;;;;;;;;;;;;;-149.78;100.00;49953.19;5087653;28;19995;-72
2022/06/24 07:30:50;;;;;;;;;;;;;;;-149.78;100.00;49974.72;5093052;28;19927;-76
2022/06/24 07:33:16;;;;;;;;;;;;;;;-149.78;100.00;49970.78;5092343;28;19999;-74
2022/06/24 07:35:41;;;;;;;;;;;;;;;-149.78;100.00;49978.63;5093760;28;21288;-73
2022/06/24 07:38:07;;;;;;;;;;;;;;;-149.78;100.00;49951.25;5089300;28;20042;-73
2022/06/24 07:40:32;;;;;;;;;;;;;;;-149.78;100.00;49947.34;5093243;28;19924;-73
2022/06/24 07:42:57;;;;;;;;;;;;;;;-149.78;100.00;49961.03;5092411;28;19932;-72
2022/06/24 07:45:23;;;;;;;;;;;;;;;-149.78;100.00;49951.25;5093434;28;19934;-73
2022/06/24 07:47:48;;;;;;;;;;;;;;;-149.78;100.00;49939.50;5093295;28;20386;-73
2022/06/24 07:50:14;;;;;;;;;;;;;;;-149.78;100.00;49957.09;5094168;28;20291;-73
2022/06/24 07:52:39;;;;;;;;;;;;;;;-149.78;100.00;49978.63;5093171;28;20419;-72
2022/06/24 07:57:49;;;;;;;;;;;;;;;-149.78;100.00;49998.19;5094278;28;20294;-72
2022/06/24 08:00:14;;;;;;;;;;;;;;;-149.78;100.00;49966.88;5096783;28;19923;-72
2022/06/24 08:02:40;;;;;;;;;;;;;;;-149.78;100.00;49957.09;5095852;28;19942;-72
2022/06/24 08:05:07;;;;;;;;;;;;;;;-149.78;100.00;49982.53;5093238;28;19927;-72
2022/06/24 08:07:32;;;;;;;;;;;;;;;-149.78;100.00;49962.97;5094759;28;20416;-72
2022/06/24 08:09:57;;;;;;;;;;;;;;;-149.78;100.00;49978.63;5093506;28;19927;-73
2022/06/24 08:12:23;;;;;;;;;;;;;;;-149.78;100.00;49970.78;5095714;28;20568;-73
2022/06/24 08:14:48;;;;;;;;;;;;;;;-149.78;100.00;49986.44;5093670;28;19924;-73
2022/06/24 08:17:14;;;;;;;;;;;;;;;-149.78;100.00;50017.72;5094156;28;19927;-73
2022/06/24 08:19:39;;;;;;;;;;;;;;;-149.78;100.00;50025.56;5094641;28;19931;-73
2022/06/24 08:22:04;;;;;;;;;;;;;;;-149.78;100.00;49978.63;5092197;28;20039;-73
2022/06/24 08:24:30;;;;;;;;;;;;;;;-149.78;100.00;49976.66;5094276;28;19935;-73
2022/06/24 08:26:56;;;;;;;;;;;;;;;-149.78;100.00;49978.63;5092847;28;20000;-73
2022/06/24 08:29:21;;;;;;;;;;;;;;;-149.78;100.00;49984.50;5095096;28;20040;-73
2022/06/24 08:31:46;;;;;;;;;;;;;;;-149.78;100.00;50009.91;5094675;28;19923;-73
2022/06/24 08:34:12;;;;;;;;;;;;;;;-149.78;100.00;49976.66;5093682;28;19935;-73
2022/06/24 08:36:37;;;;;;;;;;;;;;;-149.78;100.00;49968.84;5094101;28;19924;-72
2022/06/24 08:39:03;;;;;;;;;;;;;;;-149.78;100.00;50009.91;5093639;28;20594;-73
2022/06/24 08:41:28;;;;;;;;;;;;;;;-149.78;100.00;49986.44;5091681;28;19924;-73
2022/06/24 08:43:55;;;;;;;;;;;;;;;-149.78;100.00;49974.72;5094652;28;19938;-73
2022/06/24 08:46:20;;;;;;;;;;;;;;;-149.78;100.00;49961.03;5093742;28;19931;-73
2022/06/24 08:48:47;;;;;;;;;;;;;;;-149.78;100.00;50002.09;5093954;28;19923;-73
2022/06/24 08:51:13;;;;;;;;;;;;;;;-149.78;100.00;49978.63;5094377;28;19930;-72
2022/06/24 08:53:39;;;;;;;;;;;;;;;-149.78;100.00;49966.88;5093534;28;19923;-73
2022/06/24 08:56:05;;;;;;;;;;;;;;;-149.78;100.00;50011.88;5093524;28;20276;-73
2022/06/24 08:58:31;;;;;;;;;;;;;;;-149.78;100.00;50002.09;5095226;28;19934;-72
2022/06/24 09:00:56;;;;;;;;;;;;;;;-149.78;100.00;49990.34;5092849;28;19923;-72
2022/06/24 09:03:21;;;;;;;;;;;;;;;-149.78;100.00;49986.44;5094585;28;19966;-72
2022/06/24 09:05:48;;;;;;;;;;;;;;;-149.78;100.00;49994.25;5092333;28;19924;-72
2022/06/24 09:08:15;;;;;;;;;;;;;;;-149.78;100.00;49982.53;5092806;28;21326;-73
2022/06/24 09:11:06;;;;;;;;;;;;;;;-149.78;100.00;49974.72;5094125;28;19916;-73
2022/06/24 09:13:31;;;;;;;;;;;;;;;-149.78;100.00;50009.91;5093512;28;19982;-73
2022/06/24 09:15:56;;;;;;;;;;;;;;;-149.78;100.00;49998.19;5092039;28;20379;-73
2022/06/24 09:18:22;;;;;;;;;;;;;;;-149.78;100.00;49994.25;5094026;28;19926;-73
2022/06/24 09:20:49;;;;;;;;;;;;;;;-149.78;100.00;49990.34;5092943;28;20018;-72
2022/06/24 09:23:14;;;;;;;;;;;;;;;-149.78;100.00;50029.47;5096409;28;20890;-73
2022/06/24 09:25:47;;;;;;;;;;;;;;;-149.78;100.00;50029.47;5097697;28;19923;-72
2022/06/24 09:28:22;;;;;;;;;;;;;;;-149.78;100.00;50043.16;5097097;28;19924;-72
2022/06/24 09:30:48;;;;;;;;;;;;;;;-149.78;100.00;50033.38;5097927;28;19924;-73
2022/06/24 09:33:14;;;;;;;;;;;;;;;-149.78;100.00;50027.50;5096239;28;19965;-71
2022/06/24 09:35:40;;;;;;;;;;;;;;;-149.78;100.00;50021.63;5096313;28;19924;-74
2022/06/24 09:38:06;;;;;;;;;;;;;;;-149.78;100.00;50041.19;5092881;28;19928;-73
2022/06/24 09:40:32;;;;;;;;;;;;;;;-149.78;100.00;50029.47;5094749;28;20460;-73
2022/06/24 09:42:57;;;;;;;;;;;;;;;-149.78;100.00;50007.94;5094068;28;19931;-73
2022/06/24 09:45:24;;;;;;;;;;;;;;;-149.78;100.00;49998.19;5095395;28;19935;-73
2022/06/24 09:47:50;;;;;;;;;;;;;;;-149.78;100.00;49984.50;5097483;28;19999;-73
2022/06/24 09:50:16;;;;;;;;;;;;;;;-149.78;100.00;50039.25;5093060;28;19934;-73
2022/06/24 09:52:42;;;;;;;;;;;;;;;-149.78;100.00;50017.72;5095927;28;20556;-72
2022/06/24 09:55:10;;;;;;;;;;;;;;;-149.78;100.00;49998.19;5094168;28;19976;-72
2022/06/24 09:57:36;;;;;;;;;;;;;;;-149.78;100.00;49959.06;5091039;28;19916;-71
2022/06/24 10:02:48;;;;;;;;;;;;;;;-149.78;100.00;50025.56;5091408;28;19934;-71
2022/06/24 10:05:17;;;;;;;;;;;;;;;-149.78;100.00;50019.69;5092318;28;19927;-72
2022/06/24 10:07:45;;;;;;;;;;;;;;;-149.78;100.00;49982.53;5092943;28;20915;-70
2022/06/24 10:10:11;;;;;;;;;;;;;;;-149.78;100.00;49984.50;5091076;28;20375;-70
2022/06/24 10:12:43;;;;;;;;;;;;;;;-149.78;100.00;50006.00;5089398;28;20041;-72
2022/06/24 10:15:09;;;;;;;;;;;;;;;-149.78;100.00;49972.75;5097054;28;20002;-72
2022/06/24 10:17:35;;;;;;;;;;;;;;;-149.78;100.00;49986.44;5095949;28;19959;-71
2022/06/24 10:20:01;;;;;;;;;;;;;;;-149.78;100.00;50006.00;5090805;28;20015;-71
2022/06/24 10:22:36;;;;;;;;;;;;;;;-149.78;100.00;50025.56;5092496;28;19935;-70
2022/06/24 10:25:02;;;;;;;;;;;;;;;-149.78;100.00;50000.13;5094100;28;19971;-71
2022/06/24 10:27:47;;;;;;;;;;;;;;;-149.78;100.00;49988.41;5091874;28;19927;-70
2022/06/24 10:30:32;;;;;;;;;;;;;;;-149.78;100.00;50015.78;5094677;28;19923;-70
2022/06/24 10:33:30;;;;;;;;;;;;;;;-149.78;100.00;49978.63;5094038;28;19924;-72
2022/06/24 10:36:06;;;;;;;;;;;;;;;-149.78;100.00;50006.00;5084541;28;19965;-72
2022/06/24 10:38:34;;;;;;;;;;;;;;;-149.78;100.00;49982.53;5096498;28;19955;-72
2022/06/24 10:41:01;;;;;;;;;;;;;;;-149.78;100.00;50021.63;5095459;28;19924;-72
2022/06/24 10:43:38;;;;;;;;;;;;;;;-149.78;100.00;50019.69;5096084;28;19920;-72
2022/06/24 10:46:12;;;;;;;;;;;;;;;-149.78;100.00;50033.38;5088770;28;19930;-73
2022/06/24 10:48:44;;;;;;;;;;;;;;;-149.78;100.00;50033.38;5096629;28;20299;-70
2022/06/24 10:51:11;;;;;;;;;;;;;;;-149.78;100.00;50031.41;5097168;28;19961;-70
2022/06/24 10:53:56;;;;;;;;;;;;;;;-149.78;100.00;50049.03;5095400;28;19928;-70
2022/06/24 10:56:41;;;;;;;;;;;;;;;-149.78;100.00;50025.56;5093722;28;19919;-70
2022/06/24 10:59:06;;;;;;;;;;;;;;;-149.78;100.00;50023.59;5093661;28;19930;-70
2022/06/24 11:01:32;;;;;;;;;;;;;;;-149.78;100.00;50041.19;5094869;28;19920;-70
2022/06/24 11:04:04;;;;;;;;;;;;;;;-149.78;100.00;50049.03;5093526;28;19935;-70
2022/06/24 11:06:32;;;;;;;;;;;;;;;-149.78;100.00;50021.63;5090564;28;19947;-71
2022/06/24 11:09:07;;;;;;;;;;;;;;;-149.78;100.00;50037.28;5091621;28;19969;-71
2022/06/24 11:11:33;;;;;;;;;;;;;;;-149.78;100.00;50035.34;5088657;28;19935;-72
2022/06/24 11:13:59;;;;;;;;;;;;;;;-149.78;100.00;50013.81;5087687;28;19920;-71
2022/06/24 11:16:28;;;;;;;;;;;;;;;-149.78;100.00;50017.72;5094959;28;20394;-72
2022/06/24 11:18:54;;;;;;;;;;;;;;;-149.78;100.00;49990.34;5093920;28;20263;-72
2022/06/24 11:21:20;;;;;;;;;;;;;;;-149.78;100.00;49994.25;5093739;28;20397;-72
2022/06/24 11:23:46;;;;;;;;;;;;;;;-149.78;100.00;50049.03;5091426;28;19939;-72
2022/06/24 11:26:19;;;;;;;;;;;;;;;-149.78;100.00;50052.94;5089705;28;19935;-72
2022/06/24 11:28:51;;;;;;;;;;;;;;;-149.78;100.00;50037.28;5087474;28;20086;-72
2022/06/24 11:31:26;;;;;;;;;;;;;;;-149.78;100.00;50037.28;5092471;28;21152;-70
2022/06/24 11:34:07;;;;;;;;;;;;;;;-149.78;100.00;50037.28;5089771;28;20019;-72
2022/06/24 11:36:33;;;;;;;;;;;;;;;-149.78;100.00;50054.88;5087060;28;19924;-70
2022/06/24 11:39:01;;;;;;;;;;;;;;;-149.78;100.00;50041.19;5092527;28;20396;-70
2022/06/24 11:41:34;;;;;;;;;;;;;;;-149.78;100.00;50060.75;5091555;28;19928;-70
2022/06/24 11:44:00;;;;;;;;;;;;;;;-149.78;100.00;50017.72;5088910;28;19985;-70
2022/06/24 11:46:25;;;;;;;;;;;;;;;-149.78;100.00;50011.88;5089088;28;19931;-69
2022/06/24 11:49:04;;;;;;;;;;;;;;;-149.78;100.00;50045.09;5088653;28;20044;-69
2022/06/24 11:51:30;;;;;;;;;;;;;;;-149.78;100.00;50037.28;5093047;28;19928;-69
2022/06/24 11:53:59;;;;;;;;;;;;;;;-149.78;100.00;50006.00;5093146;28;19927;-69
2022/06/24 11:56:27;;;;;;;;;;;;;;;-149.78;100.00;50076.41;5098171;28;20039;-69
2022/06/24 11:58:53;;;;;;;;;;;;;;;-149.78;100.00;50060.75;5100407;28;19922;-70
2022/06/24 12:01:19;;;;;;;;;;;;;;;-149.78;100.00;50029.47;5097557;28;19928;-69
2022/06/24 12:03:45;;;;;;;;;;;;;;;-149.78;100.00;50037.28;5102977;28;19932;-69
2022/06/24 12:06:10;;;;;;;;;;;;;;;-149.78;100.00;50017.72;5093055;28;19916;-69
2022/06/24 12:08:36;;;;;;;;;;;;;;;-149.78;100.00;50037.28;5091067;28;19940;-70
2022/06/24 12:11:12;;;;;;;;;;;;;;;-149.78;100.00;50025.56;5092750;28;19930;-68
2022/06/24 12:13:37;;;;;;;;;;;;;;;-149.78;100.00;50045.09;5096794;28;20339;-68
2022/06/24 12:16:04;;;;;;;;;;;;;;;-149.78;100.00;50013.81;5099541;28;19939;-70
2022/06/24 12:18:30;;;;;;;;;;;;;;;-149.78;100.00;50045.09;5077307;28;19920;-69
2022/06/24 12:20:58;;;;;;;;;;;;;;;-149.78;100.00;50029.47;5080486;28;19970;-69
2022/06/24 12:23:25;;;;;;;;;;;;;;;-149.78;100.00;50037.28;5097419;28;19924;-69
2022/06/24 12:25:51;;;;;;;;;;;;;;;-149.78;100.00;50056.84;5102664;28;19924;-70
2022/06/24 12:28:24;;;;;;;;;;;;;;;-149.78;100.00;50050.97;5104766;28;20010;-69